American Strong — WDJ3172 — position and weather

sailwx.info

Track history (hours):
 
Tides and Currents Weather Stations Pressure Air Temp Water Temp Dewpoint Dewpoint Depression Visibility Wind Speed Wind Dir Waves Ship Positions

American Strong

Owner: American Commercial Lines LLC, Jeffersonville, IN. More information available from US FCC via Universal Licensing System and Coast Guard Vessel Documentation Center.

Last reported at 2017-Nov-20 00:30 UTC. Time now 2017-Nov-22 12:43 UTC.
Position N 29°34' W 094°56'.

Length 26 m; draft 3.1 m.

Type: Towing. MMSI: 367765490.

Date/timePositionNaut miles runAvg speedWind from/ knotsBaromVisibWave heightAir tempDewpointWater temp
2017-Nov-20 00:30N 29°34' W 094°56'3 5.6
2017-Nov-20 00:00N 29°37' W 094°57'3 5.2
2017-Nov-19 23:30N 29°39' W 094°58'3 5.3
2017-Nov-19 23:00N 29°42' W 094°60'2 4.2
2017-Nov-19 22:28N 29°43' W 095°01'2 5.1
2017-Nov-19 22:00N 29°45' W 095°04'2 0.3
2017-Nov-19 16:25N 29°46' W 095°05'1 1.3
2017-Nov-19 16:00N 29°46' W 095°05'0 0.1
2017-Nov-19 15:28N 29°46' W 095°05'1 1.3
2017-Nov-19 14:58N 29°46' W 095°06'1 0.1
2017-Nov-19 03:18N 29°46' W 095°05'1 4.3
2017-Nov-19 03:00N 29°45' W 095°06'2 4.9
2017-Nov-19 02:30N 29°44' W 095°09'5 0.3
2017-Nov-18 09:47N 29°43' W 095°14'1 1.2
2017-Nov-18 09:04N 29°44' W 095°14'10 4.4
2017-Nov-18 06:43N 29°44' W 095°02'1 7.0
2017-Nov-18 06:30N 29°42' W 095°01'4 7.0
2017-Nov-18 06:00N 29°40' W 094°58'4 7.1
2017-Nov-18 05:30N 29°36' W 094°57'75 4.5
2017-Nov-17 12:56N 30°04' W 093°36'2 5.6
2017-Nov-17 12:30N 30°04' W 093°33'3 5.7
2017-Nov-17 12:01N 30°04' W 093°30'3 5.1
2017-Nov-17 11:31N 30°04' W 093°27'2 3.8
2017-Nov-17 11:01N 30°04' W 093°25'3 5.6
2017-Nov-17 10:30N 30°04' W 093°22'2 3.7
2017-Nov-17 10:01N 30°05' W 093°20'2 4.2
2017-Nov-17 09:31N 30°07' W 093°20'3 5.2
2017-Nov-17 09:01N 30°09' W 093°20'0 0.2
2017-Nov-17 08:30N 30°10' W 093°19'0 0.1
2017-Nov-17 08:01N 30°10' W 093°19'0 0.1
2017-Nov-17 07:31N 30°10' W 093°19'0 0.0
2017-Nov-17 07:00N 30°10' W 093°19'0 0.0
2017-Nov-17 06:30N 30°10' W 093°19'0 0.0
2017-Nov-17 06:00N 30°10' W 093°19'0 0.0
2017-Nov-17 05:31N 30°10' W 093°19'0 0.0
2017-Nov-17 05:00N 30°10' W 093°19'0 0.0
2017-Nov-17 04:30N 30°10' W 093°19'0 0.0
2017-Nov-17 04:00N 30°10' W 093°19'0 0.0
2017-Nov-17 03:30N 30°10' W 093°19'0 0.0
2017-Nov-17 03:01N 30°10' W 093°19'0 0.0
2017-Nov-17 02:30N 30°10' W 093°19'0 0.0
2017-Nov-17 02:00N 30°10' W 093°19'0 0.0
2017-Nov-17 01:30N 30°10' W 093°19'0 0.0
2017-Nov-17 01:00N 30°10' W 093°19'0 0.0
2017-Nov-17 00:30N 30°10' W 093°19'0 0.0
2017-Nov-17 00:01N 30°10' W 093°19'0 0.0
2017-Nov-16 23:30N 30°10' W 093°19'0 0.0
2017-Nov-16 23:00N 30°10' W 093°19'0 0.0
2017-Nov-16 22:31N 30°10' W 093°19'0 0.0
2017-Nov-16 22:01N 30°10' W 093°19'0 0.0
2017-Nov-16 21:30N 30°10' W 093°19'0 0.0
2017-Nov-16 21:01N 30°10' W 093°19'0 0.0
2017-Nov-16 20:30N 30°10' W 093°19'0 0.0
2017-Nov-16 20:00N 30°10' W 093°19'0 0.0
2017-Nov-16 19:30N 30°10' W 093°19'0 0.0
2017-Nov-16 19:00N 30°10' W 093°19'0 0.0
2017-Nov-16 18:31N 30°10' W 093°19'0 0.0
2017-Nov-16 18:00N 30°10' W 093°19'0 0.0
2017-Nov-16 17:30N 30°10' W 093°19'0 0.0
2017-Nov-16 17:01N 30°10' W 093°19'0 0.0
2017-Nov-16 16:31N 30°10' W 093°19'0 0.1
2017-Nov-16 16:01N 30°10' W 093°19'0 0.9
2017-Nov-16 15:30N 30°09' W 093°20'2 4.5
2017-Nov-16 15:00N 30°07' W 093°20'2 4.0
2017-Nov-16 14:31N 30°05' W 093°20'2 3.7
2017-Nov-16 14:01N 30°04' W 093°21'0 0.8
2017-Nov-16 13:30N 30°04' W 093°22'0 0.0
2017-Nov-16 13:00N 30°04' W 093°22'0 0.0
2017-Nov-16 12:30N 30°04' W 093°22'0 0.0
2017-Nov-16 12:00N 30°04' W 093°22'0 0.0
2017-Nov-16 11:30N 30°04' W 093°22'0 0.0
2017-Nov-16 11:00N 30°04' W 093°22'0 0.0
2017-Nov-16 10:30N 30°04' W 093°22'0 0.0
2017-Nov-16 10:00N 30°04' W 093°22'0 0.0
2017-Nov-16 09:31N 30°04' W 093°22'0 0.0
2017-Nov-16 09:01N 30°04' W 093°22'0 0.0
2017-Nov-16 08:31N 30°04' W 093°22'0 0.0
2017-Nov-16 08:01N 30°04' W 093°22'0 0.0
2017-Nov-16 07:30N 30°04' W 093°22'0 0.0
2017-Nov-16 07:00N 30°04' W 093°22'0 0.0
2017-Nov-16 06:31N 30°04' W 093°22'0 0.0
2017-Nov-16 06:00N 30°04' W 093°22'0 0.0
2017-Nov-16 05:31N 30°04' W 093°22'0 0.0
2017-Nov-16 05:00N 30°04' W 093°22'0 0.9
2017-Nov-16 04:31N 30°04' W 093°21'0 0.9
2017-Nov-16 04:00N 30°04' W 093°22'0 0.1
2017-Nov-16 03:31N 30°04' W 093°22'0 0.1
2017-Nov-16 03:00N 30°04' W 093°22'0 0.8
2017-Nov-16 02:30N 30°04' W 093°22'2 4.3
2017-Nov-16 02:01N 30°04' W 093°25'2 4.3
2017-Nov-16 01:31N 30°04' W 093°27'2 4.7
2017-Nov-16 01:00N 30°04' W 093°30'2 4.6
2017-Nov-16 00:30N 30°04' W 093°33'4 5.0
2017-Nov-15 23:36N 30°04' W 093°38'0 5.3
2017-Nov-15 23:31N 30°04' W 093°38'3 5.6
2017-Nov-15 22:55N 30°03' W 093°42'69 3.6
2017-Nov-15 03:52N 29°29' W 094°51'2 6.6
2017-Nov-15 03:29N 29°31' W 094°53'3 6.4
2017-Nov-15 03:00N 29°33' W 094°55'3 6.2
2017-Nov-15 02:30N 29°36' W 094°57'3 5.7
2017-Nov-15 02:00N 29°38' W 094°58'3 6.5
2017-Nov-15 01:30N 29°41' W 094°59'3 5.1
2017-Nov-15 01:00N 29°43' W 095°01'3 5.3
2017-Nov-15 00:30N 29°45' W 095°04'2 4.1
2017-Nov-14 23:59N 29°45' W 095°06'3 5.5
2017-Nov-14 23:30N 29°44' W 095°09'4 4.4
2017-Nov-14 22:40N 29°44' W 095°13'1 4.2
2017-Nov-14 22:28N 29°43' W 095°14'0 0.3
2017-Nov-14 21:58N 29°43' W 095°14'0 0.3
2017-Nov-14 21:31N 29°43' W 095°14'0 0.0
2017-Nov-14 21:00N 29°43' W 095°14'0 0.0
2017-Nov-14 20:30N 29°43' W 095°14'0 0.0
2017-Nov-14 19:59N 29°43' W 095°14'0 0.0
2017-Nov-14 19:30N 29°43' W 095°14'0 0.0
2017-Nov-14 18:59N 29°43' W 095°14'0 0.0
2017-Nov-14 18:31N 29°43' W 095°14'0 0.0
2017-Nov-14 18:00N 29°43' W 095°14'0 0.0
2017-Nov-14 17:30N 29°43' W 095°14'0 0.0
2017-Nov-14 17:00N 29°43' W 095°14'0 0.0
2017-Nov-14 16:31N 29°43' W 095°14'0 0.0
2017-Nov-14 16:01N 29°43' W 095°14'0 0.0
2017-Nov-14 15:30N 29°43' W 095°14'0 0.0
2017-Nov-14 15:00N 29°43' W 095°14'0 0.0
2017-Nov-14 14:31N 29°43' W 095°14'0 0.0
2017-Nov-14 14:00N 29°43' W 095°14'0 0.0
2017-Nov-14 13:30N 29°43' W 095°14'0 0.0
2017-Nov-14 13:00N 29°43' W 095°14'0 0.0
2017-Nov-14 12:28N 29°43' W 095°14'0 0.0
2017-Nov-14 12:01N 29°43' W 095°14'0 0.0
2017-Nov-14 11:31N 29°43' W 095°14'0 0.0
2017-Nov-14 11:01N 29°43' W 095°14'0 0.0
2017-Nov-14 10:31N 29°43' W 095°14'0 0.0
2017-Nov-14 10:00N 29°43' W 095°14'0 0.0
2017-Nov-14 09:30N 29°43' W 095°14'0 0.0
2017-Nov-14 09:01N 29°43' W 095°14'0 0.0
2017-Nov-14 08:30N 29°43' W 095°14'0 0.0
2017-Nov-14 08:01N 29°43' W 095°14'0 0.0
2017-Nov-14 07:31N 29°43' W 095°14'0 0.0
2017-Nov-14 07:00N 29°43' W 095°14'0 0.0
2017-Nov-14 06:31N 29°43' W 095°14'0 0.0
2017-Nov-14 06:01N 29°43' W 095°14'0 0.0
2017-Nov-14 05:07N 29°43' W 095°14'0 0.0
2017-Nov-14 05:00N 29°43' W 095°14'0 0.0
2017-Nov-14 04:30N 29°43' W 095°14'0 0.0
2017-Nov-14 04:00N 29°43' W 095°14'0 0.0
2017-Nov-14 03:30N 29°43' W 095°14'0 0.1
2017-Nov-14 03:00N 29°43' W 095°14'0 0.8
2017-Nov-14 02:30N 29°43' W 095°14'3 5.4
2017-Nov-14 02:01N 29°45' W 095°11'3 6.0
2017-Nov-14 01:27N 29°44' W 095°07'3 5.9
2017-Nov-14 01:01N 29°46' W 095°05'0 0.1
2017-Nov-14 00:31N 29°46' W 095°05'0 0.0
2017-Nov-12 11:24N 29°46' W 095°06'0 0.0
2017-Nov-12 05:22N 29°46' W 095°06'0 0.0
2017-Nov-12 04:58N 29°46' W 095°06'0 0.0
2017-Nov-11 11:23N 29°46' W 095°05'0 0.0
2017-Nov-11 08:43N 29°46' W 095°06'0 0.0
2017-Nov-11 07:21N 29°46' W 095°06'0 0.0
2017-Nov-11 06:59N 29°46' W 095°06'0 0.0
2017-Nov-11 05:32N 29°46' W 095°06'0 0.0
2017-Nov-10 21:05N 29°46' W 095°05'0 0.0
2017-Nov-10 21:00N 29°46' W 095°05'0 0.3
2017-Nov-10 20:30N 29°46' W 095°05'1 0.8
2017-Nov-10 19:49N 29°45' W 095°06'0 1.1
2017-Nov-10 19:23N 29°46' W 095°06'0 0.0
2017-Nov-10 18:54N 29°46' W 095°06'0 0.0
2017-Nov-10 18:26N 29°46' W 095°06'0 0.0
2017-Nov-10 18:00N 29°46' W 095°06'0 0.0
2017-Nov-10 17:04N 29°46' W 095°06'0 0.1
2017-Nov-10 15:44N 29°46' W 095°06'0 0.3
2017-Nov-10 15:14N 29°46' W 095°06'0 0.0
2017-Nov-10 14:48N 29°46' W 095°06'0 0.0
2017-Nov-10 14:18N 29°46' W 095°06'0 0.0
2017-Nov-10 13:49N 29°46' W 095°06'0 0.0
2017-Nov-10 13:16N 29°46' W 095°06'0 0.0
2017-Nov-10 13:00N 29°46' W 095°06'0 0.0
2017-Nov-10 12:16N 29°46' W 095°06'0 0.0
2017-Nov-10 11:59N 29°46' W 095°06'0 0.0
2017-Nov-10 11:22N 29°46' W 095°06'0 0.0
2017-Nov-10 10:53N 29°46' W 095°06'0 0.0
2017-Nov-10 10:23N 29°46' W 095°06'0 0.0
2017-Nov-10 10:00N 29°46' W 095°06'0 0.0
2017-Nov-10 09:29N 29°46' W 095°06'0 0.0
2017-Nov-10 09:01N 29°46' W 095°06'0 0.0
2017-Nov-10 08:28N 29°46' W 095°06'0 0.0
2017-Nov-10 08:00N 29°46' W 095°06'0 0.0
2017-Nov-10 07:29N 29°46' W 095°06'0 0.0
2017-Nov-10 06:54N 29°46' W 095°06'0 0.0
2017-Nov-10 06:06N 29°46' W 095°06'0 0.1
2017-Nov-10 05:34N 29°46' W 095°06'0 0.0
2017-Nov-10 05:27N 29°46' W 095°06'0 0.5
2017-Nov-10 04:56N 29°46' W 095°06'0 0.0
2017-Nov-10 02:20N 29°46' W 095°06'0 0.1
2017-Nov-10 01:00N 29°46' W 095°06'  
Track history (hours):
 
Tides and Currents Weather Stations Pressure Air Temp Water Temp Dewpoint Dewpoint Depression Visibility Wind Speed Wind Dir Waves Ship Positions

American Strong

Owner: American Commercial Lines LLC, Jeffersonville, IN. More information available from US FCC via Universal Licensing System and Coast Guard Vessel Documentation Center.

Last reported at 2017-Nov-20 00:30 UTC. Time now 2017-Nov-22 12:43 UTC.
Position N 29°34' W 094°56'.

Length 26 m; draft 3.1 m.

Type: Towing. MMSI: 367765490.

Date/timePositionNaut miles runAvg speedWind from/ knotsBaromVisibWave heightAir tempDewpointWater temp
2017-Nov-20 00:30N 29°34' W 094°56'3 5.6
2017-Nov-20 00:00N 29°37' W 094°57'3 5.2
2017-Nov-19 23:30N 29°39' W 094°58'3 5.3
2017-Nov-19 23:00N 29°42' W 094°60'2 4.2
2017-Nov-19 22:28N 29°43' W 095°01'2 5.1
2017-Nov-19 22:00N 29°45' W 095°04'2 0.3
2017-Nov-19 16:25N 29°46' W 095°05'1 1.3
2017-Nov-19 16:00N 29°46' W 095°05'0 0.1
2017-Nov-19 15:28N 29°46' W 095°05'1 1.3
2017-Nov-19 14:58N 29°46' W 095°06'1 0.1
2017-Nov-19 03:18N 29°46' W 095°05'1 4.3
2017-Nov-19 03:00N 29°45' W 095°06'2 4.9
2017-Nov-19 02:30N 29°44' W 095°09'5 0.3
2017-Nov-18 09:47N 29°43' W 095°14'1 1.2
2017-Nov-18 09:04N 29°44' W 095°14'10 4.4
2017-Nov-18 06:43N 29°44' W 095°02'1 7.0
2017-Nov-18 06:30N 29°42' W 095°01'4 7.0
2017-Nov-18 06:00N 29°40' W 094°58'4 7.1
2017-Nov-18 05:30N 29°36' W 094°57'75 4.5
2017-Nov-17 12:56N 30°04' W 093°36'2 5.6
2017-Nov-17 12:30N 30°04' W 093°33'3 5.7
2017-Nov-17 12:01N 30°04' W 093°30'3 5.1
2017-Nov-17 11:31N 30°04' W 093°27'2 3.8
2017-Nov-17 11:01N 30°04' W 093°25'3 5.6
2017-Nov-17 10:30N 30°04' W 093°22'2 3.7
2017-Nov-17 10:01N 30°05' W 093°20'2 4.2
2017-Nov-17 09:31N 30°07' W 093°20'3 5.2
2017-Nov-17 09:01N 30°09' W 093°20'0 0.2
2017-Nov-17 08:30N 30°10' W 093°19'0 0.1
2017-Nov-17 08:01N 30°10' W 093°19'0 0.1
2017-Nov-17 07:31N 30°10' W 093°19'0 0.0
2017-Nov-17 07:00N 30°10' W 093°19'0 0.0
2017-Nov-17 06:30N 30°10' W 093°19'0 0.0
2017-Nov-17 06:00N 30°10' W 093°19'0 0.0
2017-Nov-17 05:31N 30°10' W 093°19'0 0.0
2017-Nov-17 05:00N 30°10' W 093°19'0 0.0
2017-Nov-17 04:30N 30°10' W 093°19'0 0.0
2017-Nov-17 04:00N 30°10' W 093°19'0 0.0
2017-Nov-17 03:30N 30°10' W 093°19'0 0.0
2017-Nov-17 03:01N 30°10' W 093°19'0 0.0
2017-Nov-17 02:30N 30°10' W 093°19'0 0.0
2017-Nov-17 02:00N 30°10' W 093°19'0 0.0
2017-Nov-17 01:30N 30°10' W 093°19'0 0.0
2017-Nov-17 01:00N 30°10' W 093°19'0 0.0
2017-Nov-17 00:30N 30°10' W 093°19'0 0.0
2017-Nov-17 00:01N 30°10' W 093°19'0 0.0
2017-Nov-16 23:30N 30°10' W 093°19'0 0.0
2017-Nov-16 23:00N 30°10' W 093°19'0 0.0
2017-Nov-16 22:31N 30°10' W 093°19'0 0.0
2017-Nov-16 22:01N 30°10' W 093°19'0 0.0
2017-Nov-16 21:30N 30°10' W 093°19'0 0.0
2017-Nov-16 21:01N 30°10' W 093°19'0 0.0
2017-Nov-16 20:30N 30°10' W 093°19'0 0.0
2017-Nov-16 20:00N 30°10' W 093°19'0 0.0
2017-Nov-16 19:30N 30°10' W 093°19'0 0.0
2017-Nov-16 19:00N 30°10' W 093°19'0 0.0
2017-Nov-16 18:31N 30°10' W 093°19'0 0.0
2017-Nov-16 18:00N 30°10' W 093°19'0 0.0
2017-Nov-16 17:30N 30°10' W 093°19'0 0.0
2017-Nov-16 17:01N 30°10' W 093°19'0 0.0
2017-Nov-16 16:31N 30°10' W 093°19'0 0.1
2017-Nov-16 16:01N 30°10' W 093°19'0 0.9
2017-Nov-16 15:30N 30°09' W 093°20'2 4.5
2017-Nov-16 15:00N 30°07' W 093°20'2 4.0
2017-Nov-16 14:31N 30°05' W 093°20'2 3.7
2017-Nov-16 14:01N 30°04' W 093°21'0 0.8
2017-Nov-16 13:30N 30°04' W 093°22'0 0.0
2017-Nov-16 13:00N 30°04' W 093°22'0 0.0
2017-Nov-16 12:30N 30°04' W 093°22'0 0.0
2017-Nov-16 12:00N 30°04' W 093°22'0 0.0
2017-Nov-16 11:30N 30°04' W 093°22'0 0.0
2017-Nov-16 11:00N 30°04' W 093°22'0 0.0
2017-Nov-16 10:30N 30°04' W 093°22'0 0.0
2017-Nov-16 10:00N 30°04' W 093°22'0 0.0
2017-Nov-16 09:31N 30°04' W 093°22'0 0.0
2017-Nov-16 09:01N 30°04' W 093°22'0 0.0
2017-Nov-16 08:31N 30°04' W 093°22'0 0.0
2017-Nov-16 08:01N 30°04' W 093°22'0 0.0
2017-Nov-16 07:30N 30°04' W 093°22'0 0.0
2017-Nov-16 07:00N 30°04' W 093°22'0 0.0
2017-Nov-16 06:31N 30°04' W 093°22'0 0.0
2017-Nov-16 06:00N 30°04' W 093°22'0 0.0
2017-Nov-16 05:31N 30°04' W 093°22'0 0.0
2017-Nov-16 05:00N 30°04' W 093°22'0 0.9
2017-Nov-16 04:31N 30°04' W 093°21'0 0.9
2017-Nov-16 04:00N 30°04' W 093°22'0 0.1
2017-Nov-16 03:31N 30°04' W 093°22'0 0.1
2017-Nov-16 03:00N 30°04' W 093°22'0 0.8
2017-Nov-16 02:30N 30°04' W 093°22'2 4.3
2017-Nov-16 02:01N 30°04' W 093°25'2 4.3
2017-Nov-16 01:31N 30°04' W 093°27'2 4.7
2017-Nov-16 01:00N 30°04' W 093°30'2 4.6
2017-Nov-16 00:30N 30°04' W 093°33'4 5.0
2017-Nov-15 23:36N 30°04' W 093°38'0 5.3
2017-Nov-15 23:31N 30°04' W 093°38'3 5.6
2017-Nov-15 22:55N 30°03' W 093°42'69 3.6
2017-Nov-15 03:52N 29°29' W 094°51'2 6.6
2017-Nov-15 03:29N 29°31' W 094°53'3 6.4
2017-Nov-15 03:00N 29°33' W 094°55'3 6.2
2017-Nov-15 02:30N 29°36' W 094°57'3 5.7
2017-Nov-15 02:00N 29°38' W 094°58'3 6.5
2017-Nov-15 01:30N 29°41' W 094°59'3 5.1
2017-Nov-15 01:00N 29°43' W 095°01'3 5.3
2017-Nov-15 00:30N 29°45' W 095°04'2 4.1
2017-Nov-14 23:59N 29°45' W 095°06'3 5.5
2017-Nov-14 23:30N 29°44' W 095°09'4 4.4
2017-Nov-14 22:40N 29°44' W 095°13'1 4.2
2017-Nov-14 22:28N 29°43' W 095°14'0 0.3
2017-Nov-14 21:58N 29°43' W 095°14'0 0.3
2017-Nov-14 21:31N 29°43' W 095°14'0 0.0
2017-Nov-14 21:00N 29°43' W 095°14'0 0.0
2017-Nov-14 20:30N 29°43' W 095°14'0 0.0
2017-Nov-14 19:59N 29°43' W 095°14'0 0.0
2017-Nov-14 19:30N 29°43' W 095°14'0 0.0
2017-Nov-14 18:59N 29°43' W 095°14'0 0.0
2017-Nov-14 18:31N 29°43' W 095°14'0 0.0
2017-Nov-14 18:00N 29°43' W 095°14'0 0.0
2017-Nov-14 17:30N 29°43' W 095°14'0 0.0
2017-Nov-14 17:00N 29°43' W 095°14'0 0.0
2017-Nov-14 16:31N 29°43' W 095°14'0 0.0
2017-Nov-14 16:01N 29°43' W 095°14'0 0.0
2017-Nov-14 15:30N 29°43' W 095°14'0 0.0
2017-Nov-14 15:00N 29°43' W 095°14'0 0.0
2017-Nov-14 14:31N 29°43' W 095°14'0 0.0
2017-Nov-14 14:00N 29°43' W 095°14'0 0.0
2017-Nov-14 13:30N 29°43' W 095°14'0 0.0
2017-Nov-14 13:00N 29°43' W 095°14'0 0.0
2017-Nov-14 12:28N 29°43' W 095°14'0 0.0
2017-Nov-14 12:01N 29°43' W 095°14'0 0.0
2017-Nov-14 11:31N 29°43' W 095°14'0 0.0
2017-Nov-14 11:01N 29°43' W 095°14'0 0.0
2017-Nov-14 10:31N 29°43' W 095°14'0 0.0
2017-Nov-14 10:00N 29°43' W 095°14'0 0.0
2017-Nov-14 09:30N 29°43' W 095°14'0 0.0
2017-Nov-14 09:01N 29°43' W 095°14'0 0.0
2017-Nov-14 08:30N 29°43' W 095°14'0 0.0
2017-Nov-14 08:01N 29°43' W 095°14'0 0.0
2017-Nov-14 07:31N 29°43' W 095°14'0 0.0
2017-Nov-14 07:00N 29°43' W 095°14'0 0.0
2017-Nov-14 06:31N 29°43' W 095°14'0 0.0
2017-Nov-14 06:01N 29°43' W 095°14'0 0.0
2017-Nov-14 05:07N 29°43' W 095°14'0 0.0
2017-Nov-14 05:00N 29°43' W 095°14'0 0.0
2017-Nov-14 04:30N 29°43' W 095°14'0 0.0
2017-Nov-14 04:00N 29°43' W 095°14'0 0.0
2017-Nov-14 03:30N 29°43' W 095°14'0 0.1
2017-Nov-14 03:00N 29°43' W 095°14'0 0.8
2017-Nov-14 02:30N 29°43' W 095°14'3 5.4
2017-Nov-14 02:01N 29°45' W 095°11'3 6.0
2017-Nov-14 01:27N 29°44' W 095°07'3 5.9
2017-Nov-14 01:01N 29°46' W 095°05'0 0.1
2017-Nov-14 00:31N 29°46' W 095°05'0 0.0
2017-Nov-12 11:24N 29°46' W 095°06'0 0.0
2017-Nov-12 05:22N 29°46' W 095°06'0 0.0
2017-Nov-12 04:58N 29°46' W 095°06'0 0.0
2017-Nov-11 11:23N 29°46' W 095°05'0 0.0
2017-Nov-11 08:43N 29°46' W 095°06'0 0.0
2017-Nov-11 07:21N 29°46' W 095°06'0 0.0
2017-Nov-11 06:59N 29°46' W 095°06'0 0.0
2017-Nov-11 05:32N 29°46' W 095°06'0 0.0
2017-Nov-10 21:05N 29°46' W 095°05'0 0.0
2017-Nov-10 21:00N 29°46' W 095°05'0 0.3
2017-Nov-10 20:30N 29°46' W 095°05'1 0.8
2017-Nov-10 19:49N 29°45' W 095°06'0 1.1
2017-Nov-10 19:23N 29°46' W 095°06'0 0.0
2017-Nov-10 18:54N 29°46' W 095°06'0 0.0
2017-Nov-10 18:26N 29°46' W 095°06'0 0.0
2017-Nov-10 18:00N 29°46' W 095°06'0 0.0
2017-Nov-10 17:04N 29°46' W 095°06'0 0.1
2017-Nov-10 15:44N 29°46' W 095°06'0 0.3
2017-Nov-10 15:14N 29°46' W 095°06'0 0.0
2017-Nov-10 14:48N 29°46' W 095°06'0 0.0
2017-Nov-10 14:18N 29°46' W 095°06'0 0.0
2017-Nov-10 13:49N 29°46' W 095°06'0 0.0
2017-Nov-10 13:16N 29°46' W 095°06'0 0.0
2017-Nov-10 13:00N 29°46' W 095°06'0 0.0
2017-Nov-10 12:16N 29°46' W 095°06'0 0.0
2017-Nov-10 11:59N 29°46' W 095°06'0 0.0
2017-Nov-10 11:22N 29°46' W 095°06'0 0.0
2017-Nov-10 10:53N 29°46' W 095°06'0 0.0
2017-Nov-10 10:23N 29°46' W 095°06'0 0.0
2017-Nov-10 10:00N 29°46' W 095°06'0 0.0
2017-Nov-10 09:29N 29°46' W 095°06'0 0.0
2017-Nov-10 09:01N 29°46' W 095°06'0 0.0
2017-Nov-10 08:28N 29°46' W 095°06'0 0.0
2017-Nov-10 08:00N 29°46' W 095°06'0 0.0
2017-Nov-10 07:29N 29°46' W 095°06'0 0.0
2017-Nov-10 06:54N 29°46' W 095°06'0 0.0
2017-Nov-10 06:06N 29°46' W 095°06'0 0.1
2017-Nov-10 05:34N 29°46' W 095°06'0 0.0
2017-Nov-10 05:27N 29°46' W 095°06'0 0.5
2017-Nov-10 04:56N 29°46' W 095°06'0 0.0
2017-Nov-10 02:20N 29°46' W 095°06'0 0.1
2017-Nov-10 01:00N 29°46' W 095°06'  

Dump ship's entire track history